Time;durP1;ratioP1;P1;durP2;ratioP2;P2;SDS_P1;SDS_P2;PMS_P1;PMS_P2;Temp;Humidity;BMP_temperature;BMP_pressure;BME280_temperature;BME280_humidity;BME280_pressure;Samples;Min_cycle;Max_cycle;Signal;HPM_P1;HPM_P2
2023/01/05 00:00:49;;;;;;;2.03;0.90;;;;;;;11.07;100.00;98570.00;5148637;23;20643;-96
2023/01/05 00:02:53;;;;;;;1.10;0.60;;;;;;;11.06;100.00;98560.50;5144382;23;21153;-94
2023/01/05 00:04:56;;;;;;;0.90;0.47;;;;;;;11.04;100.00;98559.75;5166802;23;20595;-95
2023/01/05 00:06:59;;;;;;;1.30;0.77;;;;;;;11.05;100.00;98562.28;5141628;23;21102;-95
2023/01/05 00:09:04;;;;;;;1.20;0.80;;;;;;;11.04;100.00;98559.75;5167380;23;20580;-95
2023/01/05 00:23:07;;;;;;;1.00;0.70;;;;;;;11.10;100.00;98554.16;5142130;23;20619;-95
2023/01/05 00:25:12;;;;;;;0.90;0.60;;;;;;;11.15;99.44;98558.13;5166934;23;21115;-95
2023/01/05 00:27:17;;;;;;;1.40;0.70;;;;;;;11.18;99.26;98557.13;5142631;23;20944;-96
2023/01/05 00:29:20;;;;;;;1.20;0.80;;;;;;;11.18;100.00;98557.94;5143031;23;20673;-95
2023/01/05 00:31:23;;;;;;;0.90;0.60;;;;;;;11.18;100.00;98546.66;5141974;23;20675;-95
2023/01/05 00:33:27;;;;;;;1.40;0.97;;;;;;;11.18;100.00;98552.72;5142505;23;20660;-95
2023/01/05 00:35:32;;;;;;;1.03;0.70;;;;;;;11.19;100.00;98549.19;5142305;23;21215;-95
2023/01/05 00:37:37;;;;;;;1.73;0.60;;;;;;;11.24;100.00;98544.50;5142675;23;20616;-95
2023/01/05 00:39:40;;;;;;;1.03;0.60;;;;;;;11.20;100.00;98547.41;5142756;23;20577;-95
2023/01/05 00:41:44;;;;;;;0.87;0.50;;;;;;;11.19;100.00;98546.56;5142311;23;20589;-95
2023/01/05 00:43:48;;;;;;;3.25;0.70;;;;;;;11.15;99.68;98532.03;5141955;23;21112;-95
2023/01/05 00:45:52;;;;;;;1.07;0.50;;;;;;;11.19;98.81;98550.97;5142711;23;20162;-95
2023/01/05 00:47:56;;;;;;;1.87;1.23;;;;;;;11.19;99.78;98541.34;5142922;23;20607;-95
2023/01/05 00:49:59;;;;;;;1.30;0.67;;;;;;;11.18;99.95;98542.28;5142244;23;21120;-95
2023/01/05 00:52:04;;;;;;;1.07;0.57;;;;;;;11.21;98.00;98534.25;5167128;23;20568;-95
2023/01/05 00:54:08;;;;;;;1.20;0.50;;;;;;;11.23;98.70;98540.22;5141582;23;21219;-94
2023/01/05 00:56:11;;;;;;;1.00;0.40;;;;;;;11.24;98.61;98534.06;5142544;23;20596;-95
2023/01/05 00:58:16;;;;;;;1.10;0.60;;;;;;;11.28;99.74;98532.94;5142587;23;20613;-94
2023/01/05 01:00:21;;;;;;;0.90;0.50;;;;;;;11.29;98.39;98543.28;5142401;23;20593;-95
2023/01/05 01:02:24;;;;;;;1.10;0.60;;;;;;;11.32;98.78;98539.63;5167665;23;20580;-95
2023/01/05 01:04:28;;;;;;;1.00;0.60;;;;;;;11.40;98.38;98534.75;5167308;23;20568;-95
2023/01/05 01:06:32;;;;;;;1.10;0.50;;;;;;;11.41;98.41;98544.25;5142829;23;20569;-95
2023/01/05 01:08:35;;;;;;;0.87;0.40;;;;;;;11.45;98.00;98546.56;5143265;23;20623;-95
2023/01/05 01:10:39;;;;;;;1.00;0.50;;;;;;;11.46;97.37;98531.75;5142993;23;20570;-96
2023/01/05 01:12:43;;;;;;;3.73;0.50;;;;;;;11.46;97.40;98540.41;5166577;23;20639;-94
2023/01/05 01:14:48;;;;;;;1.00;0.50;;;;;;;11.48;97.18;98537.75;5141560;23;20587;-95
2023/01/05 01:16:52;;;;;;;1.10;0.60;;;;;;;11.47;97.43;98552.59;5140883;23;20576;-95
2023/01/05 01:18:56;;;;;;;1.43;0.60;;;;;;;11.48;97.75;98532.53;5141786;23;20577;-94
2023/01/05 01:21:07;;;;;;;0.97;0.40;;;;;;;11.44;96.83;98528.38;5140482;23;20591;-94
2023/01/05 01:23:11;;;;;;;1.20;0.60;;;;;;;11.44;98.11;98525.78;5140792;23;20577;-94
2023/01/05 01:25:14;;;;;;;1.10;0.60;;;;;;;11.44;98.30;98520.56;5140505;23;20577;-95
2023/01/05 01:27:17;;;;;;;1.00;0.50;;;;;;;11.44;97.97;98516.19;5141064;23;20584;-94
2023/01/05 01:29:21;;;;;;;1.40;0.50;;;;;;;11.42;97.69;98512.00;5141357;23;20605;-94
2023/01/05 01:31:25;;;;;;;0.80;0.40;;;;;;;11.41;97.88;98507.69;5141084;23;20636;-94
2023/01/05 01:33:30;;;;;;;0.83;0.40;;;;;;;11.46;98.82;98505.63;5140069;23;20581;-94
2023/01/05 01:35:34;;;;;;;1.20;0.50;;;;;;;11.44;97.42;98524.03;5165652;22;20639;-94
2023/01/05 01:37:38;;;;;;;0.80;0.40;;;;;;;11.46;97.50;98529.16;5141097;23;20666;-94
2023/01/05 01:39:42;;;;;;;1.87;0.40;;;;;;;11.50;97.13;98523.66;5142208;23;20581;-95
2023/01/05 01:41:48;;;;;;;0.80;0.40;;;;;;;11.50;98.96;98515.81;5142451;23;20627;-94
2023/01/05 01:43:52;;;;;;;0.83;0.50;;;;;;;11.51;98.02;98522.69;5141877;23;20569;-95
2023/01/05 01:45:58;;;;;;;1.83;0.40;;;;;;;11.49;98.09;98518.53;5142203;23;20576;-94
2023/01/05 01:48:02;;;;;;;0.90;0.40;;;;;;;11.51;97.98;98532.31;5142735;23;20577;-94
2023/01/05 01:50:12;;;;;;;0.80;0.40;;;;;;;11.50;97.92;98521.03;5167838;23;20564;-93
2023/01/05 01:52:16;;;;;;;1.40;0.40;;;;;;;11.50;98.36;98521.03;5142441;23;20644;-94
2023/01/05 01:54:20;;;;;;;1.83;0.50;;;;;;;11.53;98.79;98520.00;5142028;23;20975;-94
2023/01/05 01:56:25;;;;;;;0.80;0.40;;;;;;;11.46;100.00;98510.88;5142630;23;20573;-94
2023/01/05 01:58:31;;;;;;;1.57;0.40;;;;;;;11.42;100.00;98525.03;5168159;23;20611;-94
2023/01/05 02:00:35;;;;;;;0.90;0.40;;;;;;;11.41;100.00;98513.78;5143034;23;20667;-95
2023/01/05 02:02:38;;;;;;;1.27;0.50;;;;;;;11.39;99.95;98517.41;5143095;23;20615;-95
2023/01/05 02:04:43;;;;;;;1.10;0.60;;;;;;;11.37;100.00;98517.50;5166871;23;20575;-94
2023/01/05 02:06:49;;;;;;;1.37;0.50;;;;;;;11.36;100.00;98515.00;5142512;23;20983;-95
2023/01/05 02:08:52;;;;;;;1.50;0.87;;;;;;;11.38;100.00;98515.72;5168013;23;20580;-94
2023/01/05 02:11:06;;;;;;;1.00;0.70;;;;;;;11.42;100.00;98522.44;5142501;23;20589;-95
2023/01/05 02:13:20;;;;;;;1.10;0.70;;;;;;;11.43;100.00;98516.28;5142801;23;20569;-94
2023/01/05 02:15:41;;;;;;;1.10;0.70;;;;;;;11.41;100.00;98512.91;5142816;23;20569;-94
2023/01/05 02:17:55;;;;;;;1.10;0.50;;;;;;;11.40;100.00;98506.88;5167226;23;20612;-94
2023/01/05 02:20:24;;;;;;;0.80;0.40;;;;;;;11.39;100.00;98506.97;5141619;23;20589;-95
2023/01/05 02:22:53;;;;;;;0.93;0.50;;;;;;;11.42;100.00;98509.38;5142883;23;20578;-95
2023/01/05 02:25:24;;;;;;;1.23;0.67;;;;;;;11.50;100.00;98505.38;5143523;23;21191;-96
2023/01/05 02:27:38;;;;;;;1.50;0.50;;;;;;;11.56;100.00;98507.59;5168371;23;20661;-95
2023/01/05 02:30:11;;;;;;;1.00;0.50;;;;;;;11.56;100.00;98496.28;5143361;23;20580;-95
2023/01/05 02:32:20;;;;;;;1.10;0.40;;;;;;;11.59;99.20;98496.06;5143339;23;20684;-95
2023/01/05 02:34:27;;;;;;;0.80;0.30;;;;;;;11.57;99.58;98490.13;5142648;23;20580;-94
2023/01/05 02:36:39;;;;;;;0.93;0.40;;;;;;;11.59;100.00;98488.25;5143070;23;20604;-95
2023/01/05 02:38:47;;;;;;;0.90;0.40;;;;;;;11.61;100.00;98494.22;5141931;23;20965;-94
2023/01/05 02:40:55;;;;;;;0.80;0.40;;;;;;;11.60;99.87;98495.16;5142673;23;20889;-95
2023/01/05 02:43:00;;;;;;;0.90;0.50;;;;;;;11.64;99.37;98484.41;5143112;23;20561;-95
2023/01/05 02:45:05;;;;;;;0.80;0.30;;;;;;;11.63;99.53;98484.50;5167328;23;20580;-94
2023/01/05 02:47:39;;;;;;;1.43;0.50;;;;;;;11.65;98.67;98495.66;5142535;23;21143;-95
2023/01/05 02:49:44;;;;;;;1.00;0.47;;;;;;;11.64;100.00;98494.03;5142768;23;20581;-95
2023/01/05 02:51:49;;;;;;;0.90;0.40;;;;;;;11.58;100.00;98487.41;5141743;23;21121;-95
2023/01/05 02:53:58;;;;;;;1.00;0.40;;;;;;;11.62;100.00;98473.22;5143231;23;20968;-96
2023/01/05 02:56:04;;;;;;;0.80;0.40;;;;;;;11.65;100.00;98486.09;5143147;23;20680;-95
2023/01/05 02:58:15;;;;;;;0.90;0.40;;;;;;;11.68;100.00;98480.66;5143454;23;20735;-95
2023/01/05 03:00:21;;;;;;;0.93;0.40;;;;;;;11.71;100.00;98495.28;5143292;23;20620;-95
2023/01/05 03:02:28;;;;;;;1.87;0.50;;;;;;;11.72;100.00;98497.78;5142277;23;20581;-95
2023/01/05 03:04:38;;;;;;;0.80;0.33;;;;;;;11.77;99.75;98482.63;5143018;23;20583;-96
2023/01/05 03:06:46;;;;;;;1.13;0.50;;;;;;;11.66;99.87;98479.91;5142207;23;20634;-95
2023/01/05 03:08:54;;;;;;;0.80;0.40;;;;;;;11.64;100.00;98489.63;5142845;23;20589;-96
2023/01/05 03:13:41;;;;;;;0.83;0.40;;;;;;;11.73;100.00;98488.16;5142583;23;20995;-95
2023/01/05 03:15:48;;;;;;;0.70;0.30;;;;;;;11.70;100.00;98483.13;5143154;23;20639;-95
2023/01/05 03:17:55;;;;;;;1.43;0.37;;;;;;;11.71;99.82;98479.59;5141766;23;20573;-95
2023/01/05 03:20:01;;;;;;;0.93;0.40;;;;;;;11.73;99.15;98482.94;5142614;23;20623;-95
2023/01/05 03:36:28;;;;;;;0.90;0.40;;;;;;;11.71;100.00;98501.31;5141703;23;20619;-95
2023/01/05 03:38:35;;;;;;;1.37;0.40;;;;;;;11.70;100.00;98504.91;5142936;23;20613;-96
2023/01/05 03:40:40;;;;;;;0.90;0.30;;;;;;;11.69;100.00;98497.16;5142089;23;20585;-96
2023/01/05 03:42:43;;;;;;;0.90;0.40;;;;;;;11.66;100.00;98494.75;5143023;23;20628;-95
2023/01/05 03:44:49;;;;;;;0.90;0.40;;;;;;;11.71;100.00;98497.88;5142456;23;20585;-95
2023/01/05 03:46:53;;;;;;;0.80;0.33;;;;;;;11.74;100.00;98505.53;5141895;23;21027;-96
2023/01/05 03:48:56;;;;;;;0.93;0.40;;;;;;;11.75;100.00;98493.19;5143107;23;20581;-95
2023/01/05 03:51:02;;;;;;;0.80;0.30;;;;;;;11.79;100.00;98489.44;5142624;23;21007;-95
2023/01/05 03:53:07;;;;;;;0.90;0.40;;;;;;;11.82;100.00;98491.00;5142389;23;20576;-95
2023/01/05 03:55:11;;;;;;;0.80;0.33;;;;;;;11.87;100.00;98497.59;5142946;23;20589;-95
2023/01/05 03:57:16;;;;;;;0.90;0.40;;;;;;;11.89;100.00;98495.72;5142203;23;20612;-95
2023/01/05 03:59:20;;;;;;;0.80;0.40;;;;;;;11.89;100.00;98493.13;5141781;23;20617;-95
2023/01/05 04:01:25;;;;;;;2.00;0.40;;;;;;;11.90;99.46;98499.16;5142491;23;20569;-95
2023/01/05 04:03:29;;;;;;;1.20;0.43;;;;;;;11.93;99.94;98494.56;5142429;23;20589;-95
2023/01/05 04:05:37;;;;;;;0.90;0.30;;;;;;;11.96;99.19;98488.31;5142012;23;20959;-95
2023/01/05 04:07:40;;;;;;;0.80;0.40;;;;;;;12.01;99.96;98489.69;5141981;23;21016;-96
2023/01/05 04:09:45;;;;;;;0.87;0.40;;;;;;;12.09;98.61;98482.16;5141897;23;20573;-95
2023/01/05 04:11:49;;;;;;;0.90;0.40;;;;;;;12.14;99.71;98482.66;5141607;23;20679;-95
2023/01/05 04:13:53;;;;;;;1.27;0.47;;;;;;;12.19;98.74;98484.97;5141547;23;20577;-96
2023/01/05 04:15:57;;;;;;;0.90;0.40;;;;;;;12.21;99.38;98491.78;5141690;23;20692;-94
2023/01/05 04:18:01;;;;;;;1.93;0.40;;;;;;;12.29;98.40;98494.69;5141624;23;20611;-95
2023/01/05 04:20:05;;;;;;;1.57;0.40;;;;;;;12.30;97.95;98491.16;5141500;23;20621;-95
2023/01/05 04:22:09;;;;;;;0.90;0.40;;;;;;;12.34;98.32;98489.97;5141536;23;20584;-95
2023/01/05 04:24:13;;;;;;;0.97;0.37;;;;;;;12.37;98.51;98487.16;5141720;23;20578;-94
2023/01/05 04:26:21;;;;;;;0.90;0.33;;;;;;;12.41;98.20;98491.22;5167135;23;21107;-95
2023/01/05 04:28:26;;;;;;;0.90;0.30;;;;;;;12.41;98.35;98486.00;5141846;23;20581;-94
2023/01/05 04:30:32;;;;;;;0.90;0.30;;;;;;;12.45;98.39;98495.31;5143301;23;20577;-95
2023/01/05 04:32:41;;;;;;;1.30;0.33;;;;;;;12.49;97.71;98483.69;5150636;23;20662;-95
2023/01/05 04:34:50;;;;;;;0.80;0.30;;;;;;;12.51;98.68;98497.47;5149682;23;20600;-96
2023/01/05 04:36:56;;;;;;;0.90;0.33;;;;;;;12.52;98.61;98488.69;5146698;23;20668;-96
2023/01/05 04:39:04;;;;;;;0.80;0.30;;;;;;;12.55;98.69;98488.50;5146907;23;20608;-96
2023/01/05 04:41:10;;;;;;;1.10;0.30;;;;;;;12.55;97.85;98480.63;5148176;23;20608;-96
2023/01/05 04:43:18;;;;;;;1.10;0.40;;;;;;;12.58;99.26;98490.88;5147631;23;20599;-96
2023/01/05 04:45:25;;;;;;;0.80;0.30;;;;;;;12.56;99.81;98500.63;5151422;23;20577;-96
2023/01/05 04:47:29;;;;;;;0.83;0.30;;;;;;;12.58;99.86;98504.81;5146095;23;20584;-96
2023/01/05 04:49:34;;;;;;;1.10;0.30;;;;;;;12.56;100.00;98498.84;5142330;23;20963;-95
2023/01/05 04:51:37;;;;;;;1.10;0.30;;;;;;;12.55;100.00;98509.41;5142330;23;20592;-96
2023/01/05 04:53:43;;;;;;;1.10;0.30;;;;;;;12.54;100.00;98503.34;5142034;23;20591;-95
2023/01/05 04:55:51;;;;;;;0.87;0.30;;;;;;;12.56;100.00;98508.50;5166816;23;20577;-95
2023/01/05 04:57:56;;;;;;;0.90;0.40;;;;;;;12.54;100.00;98502.50;5141190;23;21097;-96
2023/01/05 05:00:01;;;;;;;1.00;0.30;;;;;;;12.52;100.00;98512.25;5141091;23;20622;-94
2023/01/05 05:02:06;;;;;;;0.90;0.30;;;;;;;12.43;100.00;98505.91;5140866;23;20629;-95
2023/01/05 05:04:10;;;;;;;0.80;0.30;;;;;;;12.40;100.00;98519.19;5140951;23;20588;-95
2023/01/05 05:06:15;;;;;;;0.90;0.37;;;;;;;12.39;100.00;98514.88;5141384;23;20606;-95
2023/01/05 05:08:20;;;;;;;1.47;0.30;;;;;;;12.37;100.00;98511.53;5141518;23;20997;-95
2023/01/05 05:10:23;;;;;;;0.87;0.30;;;;;;;12.34;100.00;98505.66;5140771;23;20577;-96
2023/01/05 05:12:27;;;;;;;1.00;0.40;;;;;;;12.30;100.00;98525.16;5141416;23;20617;-95
2023/01/05 05:14:31;;;;;;;1.00;0.50;;;;;;;12.22;100.00;98524.81;5142799;23;20592;-94
2023/01/05 05:16:36;;;;;;;0.90;0.40;;;;;;;12.23;100.00;98531.72;5143530;23;20589;-96
2023/01/05 05:18:41;;;;;;;0.80;0.30;;;;;;;12.20;100.00;98525.88;5167976;23;20556;-95
2023/01/05 05:20:51;;;;;;;0.90;0.40;;;;;;;12.22;100.00;98523.97;5142186;23;20625;-96
2023/01/05 05:22:59;;;;;;;0.90;0.40;;;;;;;12.19;100.00;98525.00;5167050;23;20603;-96
2023/01/05 05:25:07;;;;;;;0.90;0.30;;;;;;;12.18;100.00;98531.22;5142009;23;20579;-95
2023/01/05 05:27:12;;;;;;;0.80;0.33;;;;;;;12.16;100.00;98527.84;5141911;23;20619;-95
2023/01/05 05:29:16;;;;;;;0.80;0.30;;;;;;;12.10;100.00;98538.72;5142507;23;20573;-96
2023/01/05 05:31:19;;;;;;;0.90;0.40;;;;;;;12.16;100.00;98538.28;5142360;23;21171;-95
2023/01/05 05:33:25;;;;;;;0.90;0.30;;;;;;;12.16;100.00;98543.53;5142184;23;20577;-96
2023/01/05 05:35:28;;;;;;;0.80;0.30;;;;;;;12.16;100.00;98548.75;5142373;23;20609;-96
2023/01/05 05:37:31;;;;;;;0.90;0.40;;;;;;;12.13;100.00;98541.13;5141976;23;20645;-95
2023/01/05 05:39:35;;;;;;;1.07;0.50;;;;;;;12.08;100.00;98553.66;5142578;23;20581;-95
2023/01/05 05:41:39;;;;;;;1.80;0.50;;;;;;;12.11;100.00;98558.69;5167621;23;20572;-95
2023/01/05 05:43:42;;;;;;;1.00;0.47;;;;;;;12.04;100.00;98556.59;5142168;23;20668;-95
2023/01/05 05:45:45;;;;;;;1.40;0.40;;;;;;;12.00;100.00;98555.97;5142114;23;20629;-95
2023/01/05 05:47:52;;;;;;;1.60;0.50;;;;;;;11.96;100.00;98548.44;5142398;23;20901;-96
2023/01/05 05:49:57;;;;;;;0.93;0.40;;;;;;;11.96;100.00;98567.56;5141980;23;20577;-95
2023/01/05 05:52:00;;;;;;;0.80;0.40;;;;;;;11.95;100.00;98573.75;5143566;23;20692;-95
2023/01/05 05:54:06;;;;;;;1.90;0.53;;;;;;;11.94;100.00;98564.22;5143601;23;20573;-95
2023/01/05 05:56:11;;;;;;;1.47;0.60;;;;;;;11.96;100.00;98579.78;5142645;23;20581;-95
2023/01/05 05:58:15;;;;;;;2.47;0.60;;;;;;;11.96;100.00;98578.00;5142887;23;20577;-95
2023/01/05 06:00:19;;;;;;;1.00;0.50;;;;;;;11.94;100.00;98584.28;5141560;23;20609;-94
2023/01/05 06:02:22;;;;;;;1.43;0.60;;;;;;;11.93;100.00;98595.69;5142551;23;20584;-95
2023/01/05 06:04:26;;;;;;;0.90;0.50;;;;;;;11.90;100.00;98595.88;5167237;23;20584;-95
2023/01/05 06:06:30;;;;;;;1.20;0.60;;;;;;;11.87;100.00;98585.63;5142180;23;20585;-95
2023/01/05 06:08:34;;;;;;;1.77;0.70;;;;;;;11.83;100.00;98592.84;5141714;23;20624;-95
2023/01/05 06:10:38;;;;;;;2.97;0.80;;;;;;;11.85;100.00;98592.75;5140383;23;20597;-95
2023/01/05 06:12:41;;;;;;;4.30;0.70;;;;;;;11.85;100.00;98611.03;5140106;23;20576;-95
2023/01/05 06:14:44;;;;;;;2.17;0.93;;;;;;;11.85;100.00;98613.66;5140910;23;20569;-95
2023/01/05 06:16:47;;;;;;;1.40;0.80;;;;;;;11.85;100.00;98622.31;5139476;23;21212;-95
2023/01/05 06:18:51;;;;;;;2.40;0.90;;;;;;;11.86;100.00;98626.63;5141483;23;20628;-95
2023/01/05 06:20:55;;;;;;;3.13;1.10;;;;;;;11.85;100.00;98624.09;5140820;23;20639;-96
2023/01/05 06:23:05;;;;;;;2.80;1.10;;;;;;;11.85;100.00;98634.56;5140979;23;20587;-95
2023/01/05 06:25:11;;;;;;;2.70;1.20;;;;;;;11.82;100.00;98637.38;5140766;23;20619;-95
2023/01/05 06:27:15;;;;;;;3.00;1.20;;;;;;;11.81;100.00;98649.56;5141129;23;20643;-94
2023/01/05 06:29:18;;;;;;;3.40;1.03;;;;;;;11.81;100.00;98651.34;5165707;22;20576;-95
2023/01/05 06:31:21;;;;;;;2.83;1.43;;;;;;;11.79;100.00;98661.09;5140292;23;21133;-95
2023/01/05 06:33:25;;;;;;;4.30;1.50;;;;;;;11.81;100.00;98667.03;5140264;23;21124;-94
2023/01/05 06:35:29;;;;;;;1.60;1.27;;;;;;;11.82;100.00;98666.13;5140390;23;20972;-94
2023/01/05 06:37:32;;;;;;;3.50;1.30;;;;;;;11.82;100.00;98673.94;5165087;23;20607;-95
2023/01/05 06:39:38;;;;;;;4.20;1.80;;;;;;;11.81;100.00;98670.47;5165712;23;20671;-93
2023/01/05 06:41:41;;;;;;;3.47;1.53;;;;;;;11.80;100.00;98681.03;5138744;23;20616;-94
2023/01/05 06:43:45;;;;;;;2.90;1.87;;;;;;;11.79;100.00;98682.81;5139419;23;21005;-93
2023/01/05 06:45:48;;;;;;;4.67;1.70;;;;;;;11.83;100.00;98689.53;5138892;23;20576;-94
2023/01/05 06:47:53;;;;;;;2.17;1.17;;;;;;;11.82;100.00;98676.56;5115659;23;20637;-95
2023/01/05 06:49:56;;;;;;;4.73;1.67;;;;;;;11.83;100.00;98676.47;5165240;23;20580;-94
2023/01/05 06:52:00;;;;;;;5.17;1.90;;;;;;;11.84;100.00;98675.50;5140647;23;20593;-95
2023/01/05 06:54:04;;;;;;;3.63;1.57;;;;;;;11.82;100.00;98677.41;5140299;23;20584;-94
2023/01/05 06:56:09;;;;;;;4.07;1.50;;;;;;;11.83;100.00;98676.47;5140379;23;20581;-95
2023/01/05 06:58:12;;;;;;;3.10;1.53;;;;;;;11.81;100.00;98662.63;5140598;23;20586;-94
2023/01/05 07:00:18;;;;;;;2.60;1.60;;;;;;;11.83;100.00;98673.00;5139458;23;20912;-94
2023/01/05 07:02:21;;;;;;;4.17;1.63;;;;;;;11.80;100.00;98668.81;5140171;23;21121;-95
2023/01/05 07:04:25;;;;;;;4.80;1.83;;;;;;;11.79;100.00;98672.38;5164984;23;20626;-95
2023/01/05 07:06:29;;;;;;;4.37;2.20;;;;;;;11.79;100.00;98677.59;5190424;22;20617;-94
2023/01/05 07:08:33;;;;;;;3.83;1.50;;;;;;;11.75;100.00;98660.41;5140370;23;20588;-94
2023/01/05 07:10:36;;;;;;;5.10;1.70;;;;;;;11.75;100.00;98676.09;5139922;23;20580;-95
2023/01/05 07:12:41;;;;;;;7.37;1.90;;;;;;;11.75;100.00;98672.66;5140115;23;21177;-95
2023/01/05 07:14:44;;;;;;;2.77;1.63;;;;;;;11.71;100.00;98673.78;5140447;23;21276;-95
2023/01/05 07:16:48;;;;;;;4.67;1.77;;;;;;;11.71;100.00;98673.78;5139847;23;20984;-94
2023/01/05 07:18:54;;;;;;;7.67;1.90;;;;;;;11.73;100.00;98673.69;5140677;23;21121;-96
2023/01/05 07:20:59;;;;;;;5.80;1.47;;;;;;;11.75;100.00;98682.28;5140844;23;20712;-96
2023/01/05 07:23:02;;;;;;;6.77;3.00;;;;;;;11.70;100.00;98679.09;5140822;23;20640;-95
2023/01/05 07:25:07;;;;;;;9.63;2.60;;;;;;;11.67;100.00;98677.53;5141024;23;20930;-96
2023/01/05 07:27:10;;;;;;;4.63;1.77;;;;;;;11.69;100.00;98685.28;5141722;23;20574;-96
2023/01/05 07:29:15;;;;;;;4.00;1.90;;;;;;;11.67;100.00;98680.16;5140774;23;20917;-96
2023/01/05 07:31:19;;;;;;;5.50;2.07;;;;;;;11.68;100.00;98687.06;5140228;23;20589;-96
2023/01/05 07:33:22;;;;;;;6.10;2.03;;;;;;;11.70;100.00;98686.94;5165938;23;20585;-96
2023/01/05 07:35:26;;;;;;;6.10;1.97;;;;;;;11.74;100.00;98685.81;5138727;23;20593;-94
2023/01/05 07:37:29;;;;;;;5.67;1.97;;;;;;;11.75;100.00;98700.56;5138285;23;20585;-92
2023/01/05 07:39:32;;;;;;;7.30;1.90;;;;;;;11.78;100.00;98682.91;5163618;23;20608;-92
2023/01/05 07:41:36;;;;;;;7.03;2.23;;;;;;;11.74;99.71;98688.44;5137895;23;20601;-92
2023/01/05 07:43:40;;;;;;;8.63;2.40;;;;;;;11.75;99.80;98685.72;5163604;22;20622;-92
2023/01/05 07:45:44;;;;;;;5.77;1.60;;;;;;;11.76;100.00;98690.03;5138007;23;20631;-91
2023/01/05 07:47:47;;;;;;;7.00;1.83;;;;;;;11.75;100.00;98695.34;5138785;23;20617;-91
2023/01/05 07:49:50;;;;;;;5.27;2.40;;;;;;;11.75;100.00;98706.63;5139394;23;20680;-92
2023/01/05 07:51:53;;;;;;;7.97;2.30;;;;;;;11.77;100.00;98700.38;5138419;23;21129;-91
2023/01/05 07:53:57;;;;;;;6.20;2.17;;;;;;;11.77;100.00;98704.75;5164671;23;20561;-91
2023/01/05 07:56:01;;;;;;;8.40;2.43;;;;;;;11.78;99.86;98711.66;5139441;23;21139;-91
2023/01/05 07:58:04;;;;;;;4.77;1.90;;;;;;;11.76;99.14;98714.38;5137666;23;20923;-91
2023/01/05 08:00:09;;;;;;;5.30;2.47;;;;;;;11.76;99.64;98709.13;5137774;23;21007;-91
2023/01/05 08:02:17;;;;;;;4.50;2.20;;;;;;;11.79;100.00;98729.03;5189871;22;20612;-91
2023/01/05 08:04:20;;;;;;;3.90;1.83;;;;;;;11.80;100.00;98728.94;5138474;23;20581;-91
2023/01/05 08:06:24;;;;;;;7.70;2.70;;;;;;;11.83;100.00;98728.75;5163209;23;20581;-95
2023/01/05 08:08:27;;;;;;;7.70;2.90;;;;;;;11.83;100.00;98725.25;5137340;23;20899;-90
2023/01/05 08:10:29;;;;;;;4.40;2.17;;;;;;;11.83;100.00;98735.72;5162986;23;20626;-91
2023/01/05 08:12:32;;;;;;;5.90;2.53;;;;;;;11.79;100.00;98729.03;5162334;23;20995;-91
2023/01/05 08:14:34;;;;;;;9.33;3.20;;;;;;;11.78;99.93;98730.78;5163018;23;20680;-90
2023/01/05 08:16:37;;;;;;;6.13;3.30;;;;;;;11.75;100.00;98724.09;5162955;23;21242;-91
2023/01/05 08:18:44;;;;;;;3.90;2.43;;;;;;;11.79;99.83;98735.09;5138278;23;20569;-96
2023/01/05 08:20:52;;;;;;;6.73;2.77;;;;;;;11.84;100.00;98732.19;5138963;23;20676;-96
2023/01/05 08:22:56;;;;;;;7.50;3.53;;;;;;;11.86;99.80;98736.38;5137968;23;20616;-96
2023/01/05 08:24:59;;;;;;;6.60;2.50;;;;;;;11.88;100.00;98750.19;5137168;23;20585;-95
2023/01/05 08:27:03;;;;;;;8.30;2.40;;;;;;;11.94;100.00;98749.81;5138952;23;20577;-96
2023/01/05 08:29:06;;;;;;;4.40;2.17;;;;;;;12.02;100.00;98752.75;5138051;23;20684;-96
2023/01/05 08:31:13;;;;;;;6.80;2.10;;;;;;;12.02;98.83;98757.16;5139047;23;20579;-96
2023/01/05 08:33:16;;;;;;;10.97;2.70;;;;;;;12.03;98.88;98757.06;5145967;23;20589;-96
2023/01/05 08:35:22;;;;;;;6.10;3.07;;;;;;;12.02;100.00;98758.00;5150319;23;20584;-96
2023/01/05 08:37:26;;;;;;;6.03;2.10;;;;;;;12.04;100.00;98752.66;5148977;23;20592;-96
2023/01/05 08:39:32;;;;;;;6.70;2.27;;;;;;;12.03;100.00;98757.06;5146792;23;20929;-96
2023/01/05 08:41:37;;;;;;;5.93;2.10;;;;;;;12.04;100.00;98756.13;5146581;23;21172;-96
2023/01/05 08:43:53;;;;;;;5.73;2.03;;;;;;;12.07;99.21;98760.31;5149889;23;20561;-94
2023/01/05 08:46:01;;;;;;;6.77;2.10;;;;;;;12.03;99.16;98759.69;5154938;23;20734;-96
2023/01/05 08:48:05;;;;;;;7.13;2.27;;;;;;;12.06;100.00;98756.03;5142661;23;20589;-96
2023/01/05 08:50:09;;;;;;;6.63;2.20;;;;;;;12.07;99.46;98766.41;5142995;23;20604;-96
2023/01/05 08:52:14;;;;;;;6.40;1.80;;;;;;;12.08;99.82;98775.06;5143291;23;20612;-96
2023/01/05 08:54:18;;;;;;;6.80;2.00;;;;;;;12.06;99.85;98774.34;5142197;23;20581;-96
2023/01/05 08:56:23;;;;;;;6.70;2.30;;;;;;;12.08;99.53;98782.91;5142086;23;20586;-96
2023/01/05 08:58:30;;;;;;;7.90;3.93;;;;;;;12.06;99.36;98783.00;5142832;22;20569;-96
2023/01/05 09:00:34;;;;;;;5.50;2.23;;;;;;;12.07;99.11;98779.47;5143463;23;20584;-96
2023/01/05 09:02:37;;;;;;;5.03;2.03;;;;;;;12.05;100.00;98789.16;5143569;23;20609;-96
2023/01/05 09:04:41;;;;;;;6.40;2.00;;;;;;;12.07;100.00;98786.47;5143631;23;20577;-96
2023/01/05 09:06:45;;;;;;;3.90;2.13;;;;;;;12.07;99.03;98787.31;5142814;23;20585;-96
2023/01/05 09:08:50;;;;;;;4.37;1.90;;;;;;;12.06;100.00;98790.88;5143564;23;20671;-96
2023/01/05 09:10:53;;;;;;;6.60;2.30;;;;;;;12.11;99.25;98794.00;5167930;23;20607;-95
2023/01/05 09:12:57;;;;;;;9.70;1.93;;;;;;;12.12;98.87;98790.47;5143379;23;20585;-96
2023/01/05 09:15:01;;;;;;;8.00;2.93;;;;;;;12.13;99.92;98788.69;5142630;23;20584;-96
2023/01/05 09:17:04;;;;;;;4.40;1.90;;;;;;;12.18;99.38;98794.47;5142770;23;21105;-96
2023/01/05 09:19:10;;;;;;;6.00;1.97;;;;;;;12.19;99.96;98799.59;5143464;23;20565;-96
2023/01/05 09:21:14;;;;;;;4.67;2.00;;;;;;;12.23;100.00;98805.50;5143218;23;20667;-96
2023/01/05 09:23:22;;;;;;;4.50;1.60;;;;;;;12.20;98.59;98806.50;5143989;23;21162;-95
2023/01/05 09:25:27;;;;;;;7.00;1.87;;;;;;;12.21;99.73;98805.59;5142781;23;20592;-96
2023/01/05 09:27:31;;;;;;;4.13;1.63;;;;;;;12.20;98.34;98814.34;5142132;23;20648;-96
2023/01/05 09:29:34;;;;;;;3.73;1.80;;;;;;;12.20;98.42;98814.34;5143136;23;21105;-96
2023/01/05 09:31:38;;;;;;;3.53;1.90;;;;;;;12.22;97.63;98822.94;5142570;23;20581;-96
2023/01/05 09:33:42;;;;;;;4.60;2.00;;;;;;;12.22;97.91;98822.09;5143199;23;20585;-96
2023/01/05 09:35:53;;;;;;;3.83;1.40;;;;;;;12.19;98.13;98823.13;5143831;23;20679;-96
2023/01/05 09:37:57;;;;;;;3.70;1.73;;;;;;;12.19;96.49;98836.19;5144568;23;20584;-96
2023/01/05 09:40:00;;;;;;;6.40;1.60;;;;;;;12.24;96.90;98831.53;5144235;23;20570;-96
2023/01/05 09:42:07;;;;;;;7.37;2.27;;;;;;;12.21;96.88;98831.75;5170015;22;20630;-96
2023/01/05 09:44:15;;;;;;;5.60;1.87;;;;;;;12.17;96.78;98832.84;5144846;23;20920;-96
2023/01/05 09:46:22;;;;;;;4.83;1.77;;;;;;;12.18;97.70;98845.00;5144308;23;20659;-96
2023/01/05 09:48:26;;;;;;;5.60;1.80;;;;;;;12.19;96.82;98838.81;5144692;23;20588;-96
2023/01/05 09:50:30;;;;;;;7.37;1.93;;;;;;;12.19;96.55;98836.19;5143387;23;20635;-96
2023/01/05 09:52:34;;;;;;;7.07;3.07;;;;;;;12.18;97.53;98836.28;5170999;23;20615;-96
2023/01/05 09:54:41;;;;;;;3.70;1.90;;;;;;;12.20;96.48;98835.28;5144531;23;20581;-96
2023/01/05 09:56:45;;;;;;;4.20;1.70;;;;;;;12.21;97.04;98842.19;5143908;23;20618;-96
2023/01/05 09:59:15;;;;;;;6.20;1.90;;;;;;;12.20;96.86;98839.69;5144350;23;20689;-96
2023/01/05 10:01:20;;;;;;;9.30;1.90;;;;;;;12.23;96.18;98834.25;5143512;23;20595;-96
2023/01/05 10:03:24;;;;;;;9.13;2.00;;;;;;;12.25;95.76;98838.44;5146696;23;20614;-96
2023/01/05 10:05:48;;;;;;;8.50;1.90;;;;;;;12.27;96.21;98831.34;5147203;23;20573;-96
2023/01/05 10:07:54;;;;;;;9.50;2.53;;;;;;;12.29;96.09;98834.69;5146400;23;20570;-96
2023/01/05 10:10:02;;;;;;;8.83;2.63;;;;;;;12.28;93.35;98839.09;5149473;23;20597;-96
2023/01/05 10:14:42;;;;;;;3.67;1.57;;;;;;;12.28;93.94;98838.25;5144630;23;20594;-96
2023/01/05 10:16:46;;;;;;;5.60;2.00;;;;;;;12.27;94.49;98836.59;5141131;23;20569;-96
2023/01/05 10:19:06;;;;;;;8.90;2.00;;;;;;;12.25;92.80;98841.03;5145632;23;20642;-96